Time;durP1;ratioP1;P1;durP2;ratioP2;P2;SDS_P1;SDS_P2;PMS_P1;PMS_P2;Temp;Humidity;BMP_temperature;BMP_pressure;BME280_temperature;BME280_humidity;BME280_pressure;Samples;Min_cycle;Max_cycle;Signal;HPM_P1;HPM_P2
2023/06/30 00:01:48;;;;;;;12.13;9.05;;;21.60;99.90;;;;;;5014077;28;20213;-69
2023/06/30 00:04:23;;;;;;;13.02;9.32;;;21.50;99.90;;;;;;5013846;28;20194;-69
2023/06/30 00:06:51;;;;;;;12.38;8.80;;;21.50;99.90;;;;;;5013846;28;20268;-68
2023/06/30 00:09:23;;;;;;;12.73;8.75;;;21.50;99.90;;;;;;5014190;28;20181;-69
2023/06/30 00:11:55;;;;;;;15.15;10.07;;;21.40;99.90;;;;;;5014328;28;20226;-69
2023/06/30 00:14:21;;;;;;;12.13;8.38;;;21.40;99.90;;;;;;5028081;28;20214;-68
2023/06/30 00:16:50;;;;;;;12.93;8.55;;;21.30;99.90;;;;;;4994598;28;20265;-69
2023/06/30 00:19:17;;;;;;;12.02;8.73;;;21.20;99.90;;;;;;5012628;28;20202;-71
2023/06/30 00:21:45;;;;;;;14.55;8.50;;;21.10;99.90;;;;;;5013755;28;20186;-69
2023/06/30 00:24:13;;;;;;;12.88;8.77;;;20.90;99.90;;;;;;5014163;28;20258;-68
2023/06/30 00:26:39;;;;;;;11.23;8.48;;;20.70;99.90;;;;;;5004225;28;20172;-68
2023/06/30 00:29:06;;;;;;;12.20;8.63;;;20.60;99.90;;;;;;5007904;28;20175;-68
2023/06/30 00:31:31;;;;;;;10.73;7.55;;;20.50;99.90;;;;;;5013712;28;20241;-67
2023/06/30 00:33:59;;;;;;;7.35;6.18;;;20.30;99.90;;;;;;4999660;28;20215;-69
2023/06/30 00:36:25;;;;;;;6.90;5.60;;;20.20;99.90;;;;;;5013531;28;20171;-68
2023/06/30 00:38:51;;;;;;;6.45;5.28;;;20.10;99.90;;;;;;5013233;28;20240;-68
2023/06/30 00:41:20;;;;;;;5.53;4.78;;;19.90;99.90;;;;;;5013410;28;20182;-68
2023/06/30 00:43:46;;;;;;;4.50;3.83;;;19.80;99.90;;;;;;5012243;28;20175;-68
2023/06/30 00:46:20;;;;;;;4.70;3.70;;;19.60;99.90;;;;;;5011916;28;20232;-68
2023/06/30 00:48:46;;;;;;;3.50;3.20;;;19.50;99.90;;;;;;5013678;28;20314;-69
2023/06/30 00:51:16;;;;;;;3.10;2.80;;;19.40;99.90;;;;;;5003761;28;20215;-68
2023/06/30 00:53:42;;;;;;;4.15;2.35;;;19.30;99.90;;;;;;5011793;28;20529;-69
2023/06/30 00:56:07;;;;;;;3.28;2.40;;;19.20;99.90;;;;;;5017615;28;20166;-69
2023/06/30 00:58:33;;;;;;;3.83;2.30;;;19.10;99.90;;;;;;5014931;28;20193;-70
2023/06/30 01:01:34;;;;;;;2.63;1.83;;;19.10;99.90;;;;;;5010990;28;20183;-68
2023/06/30 01:04:06;;;;;;;1.67;1.52;;;18.90;99.90;;;;;;4992655;28;20202;-68
2023/06/30 01:06:38;;;;;;;1.95;1.80;;;18.80;99.90;;;;;;5013895;28;20217;-69
2023/06/30 01:09:10;;;;;;;1.60;1.42;;;18.80;99.90;;;;;;5015715;28;20261;-69
2023/06/30 01:11:36;;;;;;;3.63;1.30;;;18.70;99.90;;;;;;5013909;28;20282;-69
2023/06/30 01:14:06;;;;;;;1.63;1.52;;;18.70;99.90;;;;;;5016637;28;20175;-70
2023/06/30 01:16:34;;;;;;;3.20;1.50;;;18.70;99.90;;;;;;5003133;28;20183;-70
2023/06/30 01:19:02;;;;;;;1.30;1.20;;;18.70;99.90;;;;;;5002586;28;20170;-69
2023/06/30 01:21:31;;;;;;;1.70;1.50;;;18.60;99.90;;;;;;5014681;28;20676;-69
2023/06/30 01:24:04;;;;;;;1.73;1.40;;;18.60;99.90;;;;;;5017576;28;20193;-69
2023/06/30 01:26:34;;;;;;;1.48;1.35;;;18.60;99.90;;;;;;5021176;28;20254;-69
2023/06/30 01:29:06;;;;;;;1.95;1.30;;;18.50;99.90;;;;;;5016455;28;20181;-69
2023/06/30 01:31:34;;;;;;;1.23;1.10;;;18.50;99.90;;;;;;5015960;28;20293;-68
2023/06/30 01:34:03;;;;;;;1.45;1.05;;;18.50;99.90;;;;;;5016551;28;20262;-68
2023/06/30 01:36:31;;;;;;;1.00;0.90;;;18.50;99.90;;;;;;5016610;28;20179;-68
2023/06/30 01:38:57;;;;;;;0.98;0.88;;;18.40;99.90;;;;;;5016483;28;20195;-68
2023/06/30 01:41:23;;;;;;;0.90;0.90;;;18.40;99.90;;;;;;5012723;28;20249;-68
2023/06/30 01:43:50;;;;;;;1.60;1.05;;;18.30;99.90;;;;;;5026492;28;20218;-67
2023/06/30 01:46:16;;;;;;;1.10;1.00;;;18.30;99.90;;;;;;5009721;28;20203;-68
2023/06/30 01:48:43;;;;;;;1.10;1.00;;;18.20;99.90;;;;;;5016259;28;20171;-69
2023/06/30 01:51:12;;;;;;;1.52;1.42;;;18.20;99.90;;;;;;5017093;28;20207;-66
2023/06/30 01:53:40;;;;;;;1.70;1.60;;;18.20;99.90;;;;;;5015491;28;20207;-65
2023/06/30 01:56:08;;;;;;;2.28;1.70;;;18.20;99.90;;;;;;5015998;28;20236;-66
2023/06/30 01:58:36;;;;;;;2.28;2.00;;;18.20;99.90;;;;;;5015507;28;20238;-66
2023/06/30 02:01:02;;;;;;;2.45;2.25;;;18.10;99.90;;;;;;4999958;28;20195;-66
2023/06/30 02:03:29;;;;;;;2.60;2.10;;;18.10;99.90;;;;;;5012729;28;20234;-66
2023/06/30 02:05:58;;;;;;;3.00;2.70;;;18.10;99.90;;;;;;5013993;28;20171;-66
2023/06/30 02:08:23;;;;;;;3.65;2.45;;;18.00;99.90;;;;;;5015969;28;20209;-65
2023/06/30 02:10:53;;;;;;;3.33;3.00;;;18.10;99.90;;;;;;5015892;28;20178;-66
2023/06/30 02:13:21;;;;;;;3.42;3.13;;;18.00;99.90;;;;;;5015207;28;20185;-65
2023/06/30 02:15:47;;;;;;;3.88;3.47;;;18.00;99.90;;;;;;5015793;28;20171;-65
2023/06/30 02:18:15;;;;;;;4.03;3.63;;;18.00;99.90;;;;;;5015815;28;20189;-66
2023/06/30 02:20:41;;;;;;;3.38;3.03;;;18.00;99.90;;;;;;5015844;28;20182;-67
2023/06/30 02:23:06;;;;;;;3.20;2.90;;;18.00;99.90;;;;;;5015332;28;20212;-67
2023/06/30 02:25:32;;;;;;;3.78;2.67;;;18.10;99.90;;;;;;5009921;28;20175;-67
2023/06/30 02:27:57;;;;;;;2.50;2.20;;;18.00;99.90;;;;;;5002335;28;20261;-67
2023/06/30 02:30:23;;;;;;;3.00;2.70;;;18.00;99.90;;;;;;5009897;28;20198;-67
2023/06/30 02:32:51;;;;;;;2.58;2.38;;;18.00;99.90;;;;;;5015315;28;20179;-66
2023/06/30 02:35:17;;;;;;;3.63;2.92;;;18.00;99.90;;;;;;5015378;28;20452;-65
2023/06/30 02:37:43;;;;;;;3.70;3.13;;;17.90;99.90;;;;;;5010943;28;20206;-66
2023/06/30 02:40:09;;;;;;;3.38;2.97;;;17.90;99.90;;;;;;5015211;28;20206;-67
2023/06/30 02:42:34;;;;;;;2.92;2.63;;;17.80;99.90;;;;;;5022697;28;20195;-67
2023/06/30 02:45:00;;;;;;;3.72;2.90;;;17.80;99.90;;;;;;5020993;28;20199;-67
2023/06/30 02:47:25;;;;;;;3.92;3.22;;;17.80;99.90;;;;;;5015040;28;20177;-67
2023/06/30 02:49:51;;;;;;;3.95;2.90;;;17.70;99.90;;;;;;5015418;28;20193;-68
2023/06/30 02:52:17;;;;;;;3.78;2.95;;;17.70;99.90;;;;;;5015073;28;20205;-68
2023/06/30 02:54:42;;;;;;;3.60;2.88;;;17.70;99.90;;;;;;5014919;28;20183;-67
2023/06/30 02:57:08;;;;;;;3.30;2.90;;;17.70;99.90;;;;;;5014707;28;20195;-67
2023/06/30 02:59:33;;;;;;;3.85;2.58;;;17.60;99.90;;;;;;5008341;28;20215;-68
2023/06/30 03:02:00;;;;;;;3.15;2.72;;;17.60;99.90;;;;;;5015724;28;20206;-67
2023/06/30 03:04:28;;;;;;;4.15;2.75;;;17.50;99.90;;;;;;5016168;28;20174;-67
2023/06/30 03:06:55;;;;;;;3.72;2.95;;;17.50;99.90;;;;;;5014540;28;20229;-67
2023/06/30 03:09:23;;;;;;;3.45;2.75;;;17.50;99.90;;;;;;5011738;28;20291;-67
2023/06/30 03:11:49;;;;;;;4.22;3.58;;;17.40;99.90;;;;;;5011348;28;20193;-67
2023/06/30 03:14:17;;;;;;;5.43;3.75;;;17.40;99.90;;;;;;5009822;28;20194;-66
2023/06/30 03:16:45;;;;;;;5.53;4.00;;;17.30;99.90;;;;;;5014529;28;20199;-67
2023/06/30 03:19:11;;;;;;;5.55;4.53;;;17.30;99.90;;;;;;5013465;28;20186;-67
2023/06/30 03:21:41;;;;;;;6.93;5.25;;;17.30;99.90;;;;;;5009966;28;20230;-65
2023/06/30 03:24:12;;;;;;;6.65;5.18;;;17.20;99.90;;;;;;5012441;28;20175;-66
2023/06/30 03:26:37;;;;;;;8.13;5.72;;;17.20;99.90;;;;;;5027582;28;20203;-65
2023/06/30 03:29:06;;;;;;;7.65;5.93;;;17.20;99.90;;;;;;5012278;28;20266;-65
2023/06/30 03:31:31;;;;;;;6.65;5.10;;;17.10;99.90;;;;;;5014549;28;20182;-65
2023/06/30 03:33:58;;;;;;;6.28;5.15;;;17.10;99.90;;;;;;4996205;28;20210;-64
2023/06/30 03:36:26;;;;;;;7.97;5.80;;;17.10;99.90;;;;;;5012765;28;20174;-64
2023/06/30 03:38:55;;;;;;;8.00;6.00;;;17.10;99.90;;;;;;5011551;28;20179;-65
2023/06/30 03:41:22;;;;;;;8.00;5.57;;;17.10;99.90;;;;;;5006199;28;20179;-65
2023/06/30 03:43:48;;;;;;;7.40;6.05;;;17.20;99.90;;;;;;5006598;28;20187;-65
2023/06/30 03:46:15;;;;;;;7.07;5.65;;;17.20;99.90;;;;;;5013519;28;20202;-65
2023/06/30 03:48:41;;;;;;;6.05;5.15;;;17.20;99.90;;;;;;5013773;28;20258;-65
2023/06/30 03:51:09;;;;;;;5.95;5.05;;;17.20;99.90;;;;;;5014862;28;20284;-66
2023/06/30 03:53:34;;;;;;;6.55;5.05;;;17.20;99.90;;;;;;5013570;28;20206;-67
2023/06/30 03:56:00;;;;;;;6.55;5.05;;;17.20;99.90;;;;;;5014191;28;20206;-66
2023/06/30 03:58:27;;;;;;;5.55;4.45;;;17.20;99.90;;;;;;5014182;28;20189;-66
2023/06/30 04:00:53;;;;;;;5.82;4.72;;;17.10;99.90;;;;;;5013941;28;20253;-66
2023/06/30 04:03:21;;;;;;;7.80;5.07;;;17.10;99.90;;;;;;5014168;28;20206;-65
2023/06/30 04:05:46;;;;;;;7.57;4.20;;;17.00;99.90;;;;;;5002800;28;20226;-66
2023/06/30 04:08:12;;;;;;;4.28;3.85;;;17.00;99.90;;;;;;5017846;28;20174;-66
2023/06/30 04:10:40;;;;;;;6.40;3.75;;;16.90;99.90;;;;;;5014057;28;20282;-66
2023/06/30 04:13:08;;;;;;;4.88;3.38;;;16.80;99.90;;;;;;5008682;28;20354;-66
2023/06/30 04:15:34;;;;;;;6.35;4.00;;;16.80;99.90;;;;;;5012595;28;21989;-66
2023/06/30 04:18:00;;;;;;;4.60;3.42;;;16.80;99.90;;;;;;5012932;28;20249;-66
2023/06/30 04:20:26;;;;;;;8.35;3.80;;;16.70;99.90;;;;;;5000572;28;20183;-66
2023/06/30 04:22:51;;;;;;;5.55;3.40;;;16.70;99.90;;;;;;5005358;28;20214;-65
2023/06/30 04:25:17;;;;;;;4.85;3.40;;;16.70;99.90;;;;;;5013858;28;20216;-66
2023/06/30 04:27:43;;;;;;;5.95;4.03;;;16.60;99.90;;;;;;5014385;28;20186;-66
2023/06/30 04:30:09;;;;;;;5.70;4.00;;;16.60;99.90;;;;;;5004527;28;20199;-66
2023/06/30 04:32:38;;;;;;;5.90;4.50;;;16.60;99.90;;;;;;5018194;28;20194;-66
2023/06/30 04:35:04;;;;;;;9.00;5.07;;;16.60;99.90;;;;;;5018477;28;20186;-66
2023/06/30 04:37:29;;;;;;;6.35;5.03;;;16.60;99.90;;;;;;5030925;28;20202;-66
2023/06/30 04:40:04;;;;;;;7.68;4.95;;;16.60;99.90;;;;;;5010097;28;20191;-66
2023/06/30 04:42:30;;;;;;;7.05;5.35;;;16.60;99.90;;;;;;5001752;28;20226;-66
2023/06/30 04:44:55;;;;;;;6.95;5.65;;;16.60;99.90;;;;;;4998825;28;20253;-66
2023/06/30 04:47:21;;;;;;;7.38;5.35;;;16.60;99.90;;;;;;5016151;28;20178;-66
2023/06/30 04:49:46;;;;;;;9.07;5.60;;;16.60;99.90;;;;;;5018013;28;20210;-66
2023/06/30 04:52:13;;;;;;;8.40;5.30;;;16.70;99.90;;;;;;5018100;28;20175;-66
2023/06/30 04:54:41;;;;;;;8.48;4.93;;;16.70;99.90;;;;;;4998428;28;20184;-65
2023/06/30 04:57:06;;;;;;;6.07;5.30;;;16.70;99.90;;;;;;5013543;28;20217;-67
2023/06/30 04:59:34;;;;;;;5.93;5.22;;;16.70;99.90;;;;;;5017767;28;20210;-66
2023/06/30 05:02:00;;;;;;;9.57;5.57;;;16.70;99.90;;;;;;5007915;28;20209;-66
2023/06/30 05:04:25;;;;;;;11.18;5.90;;;16.70;99.90;;;;;;4997906;28;20405;-68
2023/06/30 05:06:53;;;;;;;10.38;6.38;;;16.80;99.90;;;;;;5002583;28;20249;-66
2023/06/30 05:09:21;;;;;;;8.57;6.22;;;16.90;99.90;;;;;;5034221;28;20181;-67
2023/06/30 05:11:47;;;;;;;9.02;7.10;;;16.80;99.90;;;;;;5017731;28;20319;-66
2023/06/30 05:14:12;;;;;;;8.98;6.88;;;16.90;99.90;;;;;;5017592;28;20198;-67
2023/06/30 05:16:41;;;;;;;8.02;6.60;;;16.90;99.90;;;;;;5017699;28;20171;-66
2023/06/30 05:19:06;;;;;;;9.30;6.78;;;17.00;99.90;;;;;;5017131;28;20221;-66
2023/06/30 05:21:32;;;;;;;7.63;6.47;;;17.00;99.90;;;;;;5017164;28;20449;-68
2023/06/30 05:23:57;;;;;;;9.20;6.80;;;17.00;99.90;;;;;;4999278;28;20217;-67
2023/06/30 05:26:23;;;;;;;8.68;6.45;;;17.10;99.90;;;;;;4999956;28;20186;-67
2023/06/30 05:28:49;;;;;;;8.02;6.97;;;17.10;99.90;;;;;;5016986;28;20313;-67
2023/06/30 05:31:14;;;;;;;9.35;6.65;;;17.10;99.90;;;;;;5016932;28;20198;-67
2023/06/30 05:33:42;;;;;;;7.70;6.18;;;17.10;99.90;;;;;;5016324;28;20183;-65
2023/06/30 05:36:08;;;;;;;8.77;6.38;;;17.10;99.90;;;;;;4996838;28;20204;-67
2023/06/30 05:38:36;;;;;;;9.05;6.15;;;17.10;99.90;;;;;;5003538;28;20232;-67
2023/06/30 05:41:04;;;;;;;8.88;6.15;;;17.10;99.90;;;;;;5016273;28;20221;-67
2023/06/30 05:43:29;;;;;;;8.50;5.65;;;17.10;99.90;;;;;;5029689;28;20210;-66
2023/06/30 05:45:57;;;;;;;8.73;7.03;;;17.10;99.90;;;;;;4997354;28;20257;-68
2023/06/30 05:48:25;;;;;;;9.32;6.35;;;17.10;99.90;;;;;;5014906;28;20195;-66
2023/06/30 05:50:51;;;;;;;8.30;5.75;;;17.10;99.90;;;;;;5013253;28;20223;-67
2023/06/30 05:53:16;;;;;;;6.53;5.35;;;17.10;99.90;;;;;;5008787;28;20221;-68
2023/06/30 05:55:47;;;;;;;7.32;5.57;;;17.10;99.90;;;;;;5016629;28;20171;-67
2023/06/30 05:58:12;;;;;;;6.63;5.05;;;17.10;99.90;;;;;;5017137;28;20169;-67
2023/06/30 06:00:38;;;;;;;5.57;4.80;;;17.10;99.90;;;;;;5012722;28;20262;-68
2023/06/30 06:03:03;;;;;;;7.10;5.45;;;17.10;99.90;;;;;;5015562;28;20206;-66
2023/06/30 06:05:29;;;;;;;7.28;4.93;;;17.20;99.90;;;;;;5016332;28;20204;-68
2023/06/30 06:07:57;;;;;;;7.93;5.05;;;17.20;99.90;;;;;;5015862;28;20293;-68
2023/06/30 06:10:25;;;;;;;7.55;5.00;;;17.20;99.90;;;;;;5016226;28;20185;-69
2023/06/30 06:12:52;;;;;;;9.20;4.80;;;17.30;99.90;;;;;;5015355;28;20206;-65
2023/06/30 06:15:18;;;;;;;6.90;5.32;;;17.30;99.90;;;;;;5016059;28;20178;-66
2023/06/30 06:17:48;;;;;;;9.50;5.50;;;17.30;99.90;;;;;;5015778;28;20190;-68
2023/06/30 06:20:14;;;;;;;8.95;5.70;;;17.40;99.90;;;;;;5016018;28;20181;-68
2023/06/30 06:22:39;;;;;;;11.20;6.18;;;17.40;99.90;;;;;;5015896;28;20246;-65
2023/06/30 06:25:10;;;;;;;8.60;5.78;;;17.50;99.90;;;;;;5015587;28;20179;-68
2023/06/30 06:27:36;;;;;;;8.73;5.43;;;17.50;99.90;;;;;;5015580;28;20183;-68
2023/06/30 06:30:03;;;;;;;7.93;5.28;;;17.60;99.90;;;;;;5015605;28;20207;-68
2023/06/30 06:32:31;;;;;;;9.68;5.47;;;17.60;99.90;;;;;;5007791;28;20183;-67
2023/06/30 06:34:56;;;;;;;8.70;5.45;;;17.70;99.90;;;;;;5011156;28;20210;-71
2023/06/30 06:37:22;;;;;;;7.88;5.20;;;17.70;99.90;;;;;;5015441;28;20208;-68
2023/06/30 06:39:48;;;;;;;7.85;5.28;;;17.70;99.90;;;;;;5015409;28;20198;-68
2023/06/30 06:42:13;;;;;;;9.45;5.38;;;17.70;99.90;;;;;;5015285;28;20508;-66
2023/06/30 06:44:39;;;;;;;6.63;4.82;;;17.70;99.90;;;;;;5015343;28;20174;-68
2023/06/30 06:47:42;;;;;;;7.63;5.20;;;17.70;99.90;;;;;;5015480;28;20171;-68
2023/06/30 06:50:08;;;;;;;8.10;5.45;;;17.70;99.90;;;;;;5013930;28;20198;-66
2023/06/30 06:52:38;;;;;;;6.32;4.88;;;17.70;99.90;;;;;;5014026;28;20244;-67
2023/06/30 06:55:04;;;;;;;6.45;4.75;;;17.70;99.90;;;;;;5015303;28;20174;-68
2023/06/30 06:57:30;;;;;;;7.28;4.97;;;17.70;99.90;;;;;;5015258;28;20198;-67
2023/06/30 06:59:59;;;;;;;7.78;5.13;;;17.70;99.90;;;;;;5014756;28;20181;-67
2023/06/30 07:02:24;;;;;;;6.47;4.97;;;17.70;99.90;;;;;;5014788;28;20236;-65
2023/06/30 07:04:50;;;;;;;7.45;5.00;;;17.80;99.90;;;;;;5015042;28;20202;-66
2023/06/30 07:07:20;;;;;;;6.10;4.93;;;17.80;99.90;;;;;;5014584;28;20244;-68
2023/06/30 07:09:46;;;;;;;7.57;4.90;;;17.90;99.90;;;;;;5014705;28;20266;-66
2023/06/30 07:12:13;;;;;;;6.18;4.30;;;17.90;99.90;;;;;;5015004;28;20241;-65
2023/06/30 07:14:41;;;;;;;5.85;3.95;;;17.90;99.90;;;;;;5020130;28;20166;-66
2023/06/30 07:17:09;;;;;;;7.65;4.60;;;17.90;99.90;;;;;;5034576;28;20170;-67
2023/06/30 07:19:37;;;;;;;6.13;3.65;;;18.00;99.90;;;;;;5019583;28;20175;-68
2023/06/30 07:22:05;;;;;;;6.53;3.35;;;18.10;99.90;;;;;;5014440;28;20190;-64
2023/06/30 07:24:35;;;;;;;6.30;3.70;;;18.10;99.90;;;;;;5011521;28;20179;-65
2023/06/30 07:27:01;;;;;;;6.43;3.60;;;18.20;99.90;;;;;;5003232;28;20216;-67
2023/06/30 07:29:28;;;;;;;6.95;3.97;;;18.20;99.90;;;;;;5014738;28;20198;-67
2023/06/30 07:31:56;;;;;;;4.38;3.10;;;18.30;99.90;;;;;;5014813;28;20175;-67
2023/06/30 07:34:23;;;;;;;6.63;3.70;;;18.30;99.90;;;;;;5014597;28;20213;-67
2023/06/30 07:36:50;;;;;;;5.28;3.17;;;18.40;99.90;;;;;;5014731;28;20186;-67
2023/06/30 07:39:16;;;;;;;5.53;3.05;;;18.40;99.90;;;;;;5014138;28;20354;-67
2023/06/30 07:41:44;;;;;;;5.75;3.50;;;18.50;99.90;;;;;;5014606;28;20182;-64
2023/06/30 07:44:11;;;;;;;6.82;3.75;;;18.50;99.90;;;;;;5014346;28;20175;-67
2023/06/30 07:46:38;;;;;;;5.75;3.47;;;18.50;99.90;;;;;;5030926;28;20208;-65
2023/06/30 07:49:04;;;;;;;6.22;4.07;;;18.60;99.90;;;;;;5014220;28;20198;-67
2023/06/30 07:51:31;;;;;;;5.18;3.50;;;18.60;99.90;;;;;;5013971;28;20190;-67
2023/06/30 07:54:00;;;;;;;6.45;3.80;;;18.60;99.90;;;;;;5014452;28;20185;-66
2023/06/30 07:56:27;;;;;;;5.57;3.65;;;18.60;99.90;;;;;;5013892;28;20194;-65
2023/06/30 07:58:55;;;;;;;5.05;3.42;;;18.70;99.90;;;;;;4995188;28;20175;-67
2023/06/30 08:01:21;;;;;;;7.40;3.65;;;18.70;99.90;;;;;;5013118;28;20193;-67
2023/06/30 08:03:48;;;;;;;7.50;4.28;;;18.80;99.90;;;;;;5007117;28;20191;-66
2023/06/30 08:06:14;;;;;;;5.32;3.67;;;18.80;99.90;;;;;;5002762;28;20170;-67
2023/06/30 08:08:39;;;;;;;7.03;3.58;;;18.90;99.90;;;;;;5010949;28;20202;-65
2023/06/30 08:11:05;;;;;;;5.28;3.60;;;18.90;99.90;;;;;;4999660;28;20225;-66
2023/06/30 08:13:31;;;;;;;4.55;3.45;;;19.00;99.90;;;;;;5014111;28;20277;-67
2023/06/30 08:15:58;;;;;;;4.22;3.10;;;19.10;99.90;;;;;;5009364;28;20189;-66
2023/06/30 08:18:27;;;;;;;3.55;3.25;;;19.10;99.90;;;;;;5013855;28;20198;-67
2023/06/30 08:20:52;;;;;;;5.80;3.22;;;19.10;99.90;;;;;;5025602;28;20194;-67
2023/06/30 08:23:20;;;;;;;3.78;3.05;;;19.10;99.90;;;;;;5013765;28;20214;-67
2023/06/30 08:25:49;;;;;;;3.88;3.15;;;19.10;99.90;;;;;;5014336;28;20171;-67
2023/06/30 08:28:14;;;;;;;5.85;3.75;;;19.10;99.90;;;;;;5005324;28;20203;-67
2023/06/30 08:30:40;;;;;;;4.72;3.40;;;19.10;99.90;;;;;;5009520;28;20185;-67
2023/06/30 08:33:05;;;;;;;4.78;3.03;;;19.10;99.90;;;;;;5013874;28;20177;-65
2023/06/30 08:35:36;;;;;;;5.93;3.20;;;19.10;99.90;;;;;;5013791;28;20277;-66
2023/06/30 08:38:04;;;;;;;5.07;3.58;;;19.10;99.90;;;;;;5007546;28;20182;-66
2023/06/30 08:40:31;;;;;;;6.32;3.95;;;19.20;99.90;;;;;;5013363;28;20217;-67
2023/06/30 08:43:10;;;;;;;4.45;3.95;;;19.20;99.90;;;;;;5013862;28;20198;-67
2023/06/30 08:45:38;;;;;;;5.18;3.45;;;19.30;99.90;;;;;;5013960;28;20198;-66
2023/06/30 08:48:04;;;;;;;4.90;2.70;;;19.30;99.90;;;;;;5013777;28;20198;-66
2023/06/30 08:50:34;;;;;;;5.35;2.97;;;19.30;99.90;;;;;;5013587;28;20182;-66
2023/06/30 08:53:01;;;;;;;3.03;2.47;;;19.40;99.90;;;;;;5013614;28;20175;-67
2023/06/30 08:55:27;;;;;;;3.65;2.55;;;19.40;99.90;;;;;;5008741;28;20463;-67
2023/06/30 08:57:57;;;;;;;4.25;2.70;;;19.40;99.90;;;;;;5005002;28;20179;-67
2023/06/30 09:00:23;;;;;;;4.03;2.58;;;19.40;99.90;;;;;;5013225;28;20193;-67
2023/06/30 09:02:50;;;;;;;3.97;2.70;;;19.50;99.90;;;;;;5013329;28;20202;-67
2023/06/30 09:05:19;;;;;;;4.15;2.50;;;19.50;99.90;;;;;;5013442;28;20197;-66
2023/06/30 09:07:54;;;;;;;4.25;2.80;;;19.60;99.90;;;;;;5013302;28;20177;-66
2023/06/30 09:10:22;;;;;;;3.80;2.55;;;19.70;99.90;;;;;;5013157;28;20180;-67
2023/06/30 09:12:54;;;;;;;3.30;2.17;;;19.80;99.90;;;;;;5013334;28;20199;-67
2023/06/30 09:15:22;;;;;;;2.80;1.80;;;19.90;99.90;;;;;;5013462;28;20205;-66
2023/06/30 09:17:49;;;;;;;3.10;1.90;;;20.10;99.90;;;;;;5017777;28;20264;-68
2023/06/30 09:20:14;;;;;;;3.63;1.85;;;20.10;99.90;;;;;;5017098;28;20179;-67
2023/06/30 09:22:40;;;;;;;4.30;1.80;;;20.20;99.90;;;;;;5016227;28;20217;-68
2023/06/30 09:25:07;;;;;;;3.28;1.55;;;20.20;99.90;;;;;;5017064;28;20193;-66
2023/06/30 09:27:36;;;;;;;3.53;2.13;;;20.30;99.90;;;;;;5015502;28;20178;-66
2023/06/30 09:30:02;;;;;;;3.38;1.80;;;20.30;99.90;;;;;;5016820;28;20265;-67
2023/06/30 09:32:32;;;;;;;2.13;1.60;;;20.40;99.90;;;;;;5004782;28;20314;-67
2023/06/30 09:35:06;;;;;;;2.35;1.67;;;20.40;99.90;;;;;;4998424;28;20266;-67
2023/06/30 09:37:59;;;;;;;3.53;1.88;;;20.50;99.90;;;;;;5017045;28;20173;-68
2023/06/30 09:40:29;;;;;;;2.10;1.38;;;20.60;99.90;;;;;;5013799;28;20190;-67
2023/06/30 09:42:55;;;;;;;3.42;1.40;;;20.60;99.90;;;;;;5013112;28;20195;-67
2023/06/30 09:45:21;;;;;;;3.25;1.48;;;20.70;99.90;;;;;;5009856;28;20199;-68
2023/06/30 09:47:53;;;;;;;3.42;1.90;;;20.80;99.90;;;;;;5016747;28;20174;-67
2023/06/30 09:50:27;;;;;;;4.28;1.65;;;20.90;99.90;;;;;;5016017;28;20201;-67
2023/06/30 09:52:53;;;;;;;2.03;1.48;;;21.00;99.90;;;;;;5009700;28;20271;-66
2023/06/30 09:55:19;;;;;;;3.35;1.50;;;21.10;99.90;;;;;;4996669;28;20208;-67
2023/06/30 09:57:47;;;;;;;4.47;1.63;;;21.10;99.90;;;;;;5006743;28;20174;-67
2023/06/30 10:00:16;;;;;;;1.80;1.20;;;21.20;99.90;;;;;;5017033;28;20429;-69
2023/06/30 10:02:45;;;;;;;2.45;1.40;;;21.30;99.90;;;;;;5016147;28;20214;-67
2023/06/30 10:05:11;;;;;;;2.90;1.30;;;21.40;99.90;;;;;;5016341;28;20180;-68
2023/06/30 10:07:40;;;;;;;1.80;1.33;;;21.50;99.90;;;;;;5017035;28;20179;-68
2023/06/30 10:10:12;;;;;;;1.60;1.10;;;21.60;99.90;;;;;;5016298;28;20418;-69
2023/06/30 10:12:44;;;;;;;2.38;1.17;;;21.80;99.90;;;;;;5015330;28;20286;-68
2023/06/30 10:15:11;;;;;;;1.80;1.00;;;21.90;99.90;;;;;;5012775;28;20203;-68
2023/06/30 10:17:43;;;;;;;2.80;1.17;;;22.00;99.90;;;;;;5005117;28;20210;-68
2023/06/30 10:20:09;;;;;;;1.95;1.00;;;22.00;99.90;;;;;;5015852;28;20182;-68
2023/06/30 10:22:37;;;;;;;2.30;1.17;;;22.10;99.90;;;;;;5015375;28;20233;-67
2023/06/30 10:25:04;;;;;;;2.28;1.50;;;22.10;99.90;;;;;;5016044;28;20187;-68
2023/06/30 10:27:30;;;;;;;2.15;1.20;;;22.20;99.90;;;;;;5015248;28;20175;-68
2023/06/30 10:29:57;;;;;;;1.98;1.00;;;22.30;99.90;;;;;;5014581;28;20194;-68
2023/06/30 10:32:27;;;;;;;2.47;1.05;;;22.40;99.90;;;;;;4996094;28;20207;-69
2023/06/30 10:34:53;;;;;;;4.57;1.10;;;22.40;99.90;;;;;;5003204;28;20187;-67
2023/06/30 10:37:21;;;;;;;2.17;1.10;;;22.50;99.90;;;;;;5012327;28;20176;-69
2023/06/30 10:39:47;;;;;;;1.98;1.13;;;22.60;99.90;;;;;;5006195;28;20191;-68
2023/06/30 10:42:16;;;;;;;4.13;1.77;;;22.70;99.90;;;;;;5011894;28;20263;-68
2023/06/30 10:44:46;;;;;;;3.25;1.52;;;22.80;99.90;;;;;;5027911;28;20198;-68
2023/06/30 10:47:12;;;;;;;2.42;1.20;;;23.00;99.90;;;;;;5015318;28;20278;-68
2023/06/30 10:49:42;;;;;;;1.90;1.20;;;23.10;99.90;;;;;;5015418;28;20207;-69
2023/06/30 10:52:12;;;;;;;1.83;1.23;;;23.30;99.90;;;;;;5015100;28;20178;-69
2023/06/30 10:55:05;;;;;;;3.25;1.20;;;23.40;99.90;;;;;;5031860;28;20202;-69
2023/06/30 10:57:39;;;;;;;1.95;1.10;;;23.70;99.90;;;;;;5012174;28;20182;-68
2023/06/30 11:00:16;;;;;;;1.63;1.08;;;23.80;99.90;;;;;;4995770;28;20229;-69
2023/06/30 11:02:53;;;;;;;2.67;1.30;;;23.90;99.90;;;;;;5009755;28;20194;-68
2023/06/30 11:05:21;;;;;;;2.05;1.10;;;24.10;99.90;;;;;;5014708;28;20162;-67
2023/06/30 11:07:54;;;;;;;1.98;0.90;;;24.20;99.90;;;;;;5029290;28;20171;-68
2023/06/30 11:10:34;;;;;;;1.88;1.20;;;24.30;99.90;;;;;;5015081;28;20274;-69
2023/06/30 11:13:10;;;;;;;2.90;1.10;;;24.40;99.90;;;;;;5028569;28;20171;-68
2023/06/30 11:15:41;;;;;;;1.58;1.00;;;24.50;99.90;;;;;;5006364;28;20208;-69
2023/06/30 11:18:14;;;;;;;1.95;0.90;;;24.60;99.90;;;;;;5027680;28;20179;-69
2023/06/30 11:20:57;;;;;;;3.08;1.20;;;24.70;99.90;;;;;;5018147;28;20294;-69
2023/06/30 11:23:25;;;;;;;1.45;0.80;;;24.80;99.90;;;;;;4995382;28;20219;-68
2023/06/30 11:25:55;;;;;;;1.17;0.80;;;24.90;99.90;;;;;;5012658;28;20298;-68
2023/06/30 11:28:24;;;;;;;2.00;1.00;;;25.00;99.90;;;;;;5015045;28;20199;-69
2023/06/30 11:30:52;;;;;;;1.38;1.00;;;25.00;99.90;;;;;;5015061;28;20171;-69
2023/06/30 11:33:18;;;;;;;1.25;0.82;;;25.10;99.90;;;;;;5015286;28;20200;-68
2023/06/30 11:35:53;;;;;;;1.40;0.82;;;25.10;99.90;;;;;;5015192;28;20262;-68
2023/06/30 11:38:21;;;;;;;1.73;1.10;;;25.10;99.90;;;;;;5014306;28;20210;-69
2023/06/30 11:40:48;;;;;;;1.50;0.88;;;25.10;99.90;;;;;;5014970;28;20179;-68
2023/06/30 11:43:14;;;;;;;1.83;0.88;;;25.10;99.90;;;;;;5015096;28;20214;-69
2023/06/30 11:45:42;;;;;;;1.83;0.80;;;25.20;99.90;;;;;;5011799;28;20214;-68
2023/06/30 11:48:11;;;;;;;1.58;0.90;;;25.20;99.90;;;;;;5003558;28;20182;-69
2023/06/30 11:50:37;;;;;;;1.52;0.80;;;25.30;99.90;;;;;;5000192;28;20257;-70
2023/06/30 11:53:02;;;;;;;1.77;0.80;;;25.40;99.90;;;;;;5006669;28;20178;-69
2023/06/30 11:55:30;;;;;;;1.02;0.85;;;25.50;99.90;;;;;;5015083;28;20175;-68
2023/06/30 11:57:56;;;;;;;3.10;1.10;;;25.70;99.90;;;;;;5014894;28;20209;-69
2023/06/30 12:00:26;;;;;;;3.17;0.80;;;25.90;99.90;;;;;;5014998;28;20229;-69
2023/06/30 12:02:52;;;;;;;1.85;1.00;;;26.00;99.90;;;;;;5014815;28;20217;-68
2023/06/30 12:05:23;;;;;;;1.70;0.80;;;26.10;99.90;;;;;;5014832;28;20178;-69
2023/06/30 12:07:55;;;;;;;1.40;1.00;;;26.30;99.90;;;;;;5014693;28;20186;-69
2023/06/30 12:10:21;;;;;;;1.55;1.02;;;26.40;99.90;;;;;;5014567;28;20342;-69
2023/06/30 12:12:59;;;;;;;2.20;0.98;;;26.50;99.90;;;;;;5014400;28;20236;-70
2023/06/30 12:15:29;;;;;;;2.15;1.05;;;26.60;99.90;;;;;;5014745;28;20198;-69
2023/06/30 12:17:55;;;;;;;0.82;0.70;;;26.60;99.90;;;;;;5014116;28;20186;-69
2023/06/30 12:20:29;;;;;;;1.88;0.77;;;26.60;99.90;;;;;;5014305;28;20175;-69
2023/06/30 12:22:57;;;;;;;1.30;1.20;;;26.60;99.90;;;;;;5014682;28;20209;-69
2023/06/30 12:25:26;;;;;;;2.25;0.90;;;26.50;99.90;;;;;;5014316;28;20180;-68
2023/06/30 12:27:54;;;;;;;1.35;0.70;;;26.40;99.90;;;;;;5014546;28;20205;-69
2023/06/30 12:30:20;;;;;;;1.42;0.80;;;26.30;99.90;;;;;;5010310;28;20174;-69
2023/06/30 12:32:48;;;;;;;1.55;0.80;;;26.20;99.90;;;;;;5014532;28;20174;-66
2023/06/30 12:35:14;;;;;;;1.90;0.85;;;26.10;99.90;;;;;;5014134;28;20289;-67
2023/06/30 12:37:48;;;;;;;1.33;0.90;;;26.00;99.90;;;;;;5014339;28;20213;-69
2023/06/30 12:40:16;;;;;;;1.75;0.90;;;25.90;99.90;;;;;;5014000;28;20171;-69
2023/06/30 12:42:49;;;;;;;1.10;0.95;;;25.70;99.90;;;;;;5015513;28;20202;-69
2023/06/30 12:45:15;;;;;;;1.48;1.05;;;25.60;99.90;;;;;;5029305;28;20178;-68
2023/06/30 12:47:41;;;;;;;2.78;1.00;;;25.50;99.90;;;;;;5013933;28;20198;-67
2023/06/30 12:50:12;;;;;;;1.42;0.70;;;25.50;99.90;;;;;;5013655;28;20236;-67